createdAt,value
2022-08-11T00:01:17.364Z,101132.91
2022-08-11T00:03:48.563Z,101138.09
2022-08-11T00:06:27.116Z,101136.22
2022-08-11T00:08:57.326Z,101132.47
2022-08-11T00:11:35.619Z,101129.50
2022-08-11T00:14:05.741Z,101132.25
2022-08-11T00:16:35.280Z,101122.28
2022-08-11T00:19:04.786Z,101126.63
2022-08-11T00:22:04.345Z,101121.25
2022-08-11T00:24:53.684Z,101130.47
2022-08-11T00:27:34.069Z,101121.03
2022-08-11T00:30:03.837Z,101129.16
2022-08-11T00:32:33.237Z,101131.06
2022-08-11T00:35:52.013Z,101120.81
2022-08-11T00:37:57.635Z,101130.28
2022-08-11T00:40:37.194Z,101127.34
2022-08-11T00:43:21.067Z,101126.28
2022-08-11T00:46:11.206Z,101129.53
2022-08-11T00:48:51.839Z,101131.19
2022-08-11T00:51:28.844Z,101134.47
2022-08-11T00:54:37.216Z,101116.66
2022-08-11T00:57:41.305Z,101125.31
2022-08-11T01:00:23.536Z,101130.75
2022-08-11T01:03:21.147Z,101129.16
2022-08-11T01:06:08.103Z,101127.81
2022-08-11T01:09:21.893Z,101125.94
2022-08-11T01:12:28.172Z,101145.69
2022-08-11T01:15:27.410Z,101139.19
2022-08-11T01:18:32.920Z,101142.16
2022-08-11T01:21:50.074Z,101140.28
2022-08-11T01:25:00.637Z,101139.50
2022-08-11T01:28:19.974Z,101143.84
2022-08-11T01:31:26.813Z,101145.50
2022-08-11T01:34:28.724Z,101145.50
2022-08-11T01:37:42.415Z,101149.03
2022-08-11T01:40:43.137Z,101142.53
2022-08-11T01:44:12.873Z,101147.41
2022-08-11T01:46:49.609Z,101143.38
2022-08-11T01:50:05.146Z,101151.47
2022-08-11T01:52:39.929Z,101148.50
2022-08-11T01:55:19.859Z,101150.13
2022-08-11T01:57:58.617Z,101147.44
2022-08-11T02:00:31.061Z,101145.50
2022-08-11T02:03:08.609Z,101143.38
2022-08-11T02:06:01.632Z,101139.59
2022-08-11T02:08:50.418Z,101139.31
2022-08-11T02:11:35.499Z,101139.06
2022-08-11T02:14:26.849Z,101134.19
2022-08-11T02:17:07.297Z,101136.63
2022-08-11T02:20:08.966Z,101144.47
2022-08-11T02:23:02.368Z,101136.38
2022-08-11T02:25:39.458Z,101129.88
2022-08-11T02:28:29.159Z,101130.97
2022-08-11T02:32:14.856Z,101130.13
2022-08-11T02:34:22.193Z,101127.19
2022-08-11T02:36:57.944Z,101132.00
2022-08-11T02:39:41.060Z,101128.78
2022-08-11T02:42:32.757Z,101127.69
2022-08-11T02:45:20.048Z,101128.22
2022-08-11T02:48:15.117Z,101127.97
2022-08-11T02:50:56.062Z,101120.13
2022-08-11T02:53:33.949Z,101126.59
2022-08-11T02:56:09.008Z,101124.94
2022-08-11T02:59:11.997Z,101121.44
2022-08-11T03:01:50.806Z,101127.34
2022-08-11T03:04:25.204Z,101127.09
2022-08-11T03:07:28.669Z,101125.19
2022-08-11T03:10:07.931Z,101123.59
2022-08-11T03:13:03.900Z,101121.69
2022-08-11T03:16:03.878Z,101124.91
2022-08-11T03:18:40.853Z,101117.88
2022-08-11T03:21:17.813Z,101121.38
2022-08-11T03:23:57.498Z,101114.34
2022-08-11T03:26:33.496Z,101121.88
2022-08-11T03:29:10.470Z,101118.91
2022-08-11T03:31:58.122Z,101118.63
2022-08-11T03:34:29.195Z,101125.63
2022-08-11T03:37:47.812Z,101124.25
2022-08-11T03:40:49.246Z,101125.59
2022-08-11T03:43:31.390Z,101127.75
2022-08-11T03:46:10.252Z,101131.22
2022-08-11T03:48:57.051Z,101130.66
2022-08-11T03:51:44.798Z,101135.78
2022-08-11T03:54:36.455Z,101129.53
2022-08-11T03:57:41.348Z,101135.75
2022-08-11T04:00:32.462Z,101140.00
2022-08-11T04:03:34.504Z,101132.69
2022-08-11T04:06:40.772Z,101134.28
2022-08-11T04:09:46.518Z,101134.56
2022-08-11T04:12:36.789Z,101129.69
2022-08-11T04:15:55.654Z,101132.63
2022-08-11T04:18:53.719Z,101129.38
2022-08-11T04:22:04.513Z,101122.91
2022-08-11T04:25:00.069Z,101122.34
2022-08-11T04:28:02.255Z,101121.00
2022-08-11T04:30:47.016Z,101125.28
2022-08-11T04:33:56.544Z,101130.66
2022-08-11T04:37:11.734Z,101123.91
2022-08-11T04:39:50.783Z,101131.44
2022-08-11T04:43:13.574Z,101131.41
2022-08-11T04:46:15.093Z,101132.47
2022-08-11T04:49:40.343Z,101129.75
2022-08-11T04:52:50.269Z,101133.75
2022-08-11T04:56:12.345Z,101134.28
2022-08-11T04:59:11.389Z,101136.41
2022-08-11T05:01:57.349Z,101136.66
2022-08-11T05:05:12.592Z,101141.47
2022-08-11T05:08:30.862Z,101137.19
2022-08-11T05:11:13.312Z,101141.75
2022-08-11T05:14:05.650Z,101134.47
2022-08-11T05:17:00.596Z,101136.66
2022-08-11T05:19:47.541Z,101146.91
2022-08-11T05:22:38.197Z,101145.91
2022-08-11T05:26:43.220Z,101142.97
2022-08-11T05:28:47.310Z,101137.34
2022-08-11T05:31:35.887Z,101142.25
2022-08-11T05:34:28.839Z,101142.28
2022-08-11T05:37:25.251Z,101141.56
2022-08-11T05:40:18.982Z,101148.31
2022-08-11T05:43:10.461Z,101154.31
2022-08-11T05:46:02.758Z,101152.97
2022-08-11T05:48:52.579Z,101143.03
2022-08-11T05:51:38.780Z,101143.06
2022-08-11T05:54:29.632Z,101147.97
2022-08-11T05:57:02.196Z,101142.59
2022-08-11T05:59:34.708Z,101145.59
2022-08-11T06:02:04.764Z,101146.41
2022-08-11T06:04:34.515Z,101142.91
2022-08-11T06:07:04.114Z,101148.06
2022-08-11T06:09:36.283Z,101147.00
2022-08-11T06:12:08.558Z,101143.50
2022-08-11T06:14:44.561Z,101144.59
2022-08-11T06:17:13.846Z,101147.31
2022-08-11T06:19:44.333Z,101143.81
2022-08-11T06:22:13.610Z,101130.38
2022-08-11T06:24:46.728Z,101136.59
2022-08-11T06:27:21.415Z,101143.88
2022-08-11T06:29:54.980Z,101137.97
2022-08-11T06:32:27.066Z,101143.38
2022-08-11T06:35:06.659Z,101150.38
2022-08-11T06:37:46.751Z,101142.56
2022-08-11T06:40:28.023Z,101144.72
2022-08-11T06:43:03.198Z,101145.78
2022-08-11T06:45:36.907Z,101148.00
2022-08-11T06:48:06.671Z,101147.19
2022-08-11T06:50:53.472Z,101150.38
2022-08-11T06:53:22.275Z,101154.44
2022-08-11T06:56:09.086Z,101149.81
2022-08-11T06:58:59.358Z,101153.00
2022-08-11T07:01:49.244Z,101152.97
2022-08-11T07:04:25.528Z,101155.13
2022-08-11T07:07:25.531Z,101152.09
2022-08-11T07:10:31.412Z,101148.78
2022-08-11T07:13:44.212Z,101145.75
2022-08-11T07:16:12.152Z,101144.31
2022-08-11T07:19:01.421Z,101146.38
2022-08-11T07:22:03.776Z,101148.97
2022-08-11T07:24:59.100Z,101150.72
2022-08-11T07:27:55.796Z,101154.13
2022-08-11T07:30:26.751Z,101152.91
2022-08-11T07:32:59.750Z,101158.16
2022-08-11T07:35:33.238Z,101151.25
2022-08-11T07:38:07.269Z,101149.69
2022-08-11T07:40:37.435Z,101154.47
2022-08-11T07:43:07.675Z,101159.97
2022-08-11T07:45:53.040Z,101148.72
2022-08-11T07:48:40.561Z,101153.63
2022-08-11T07:51:26.161Z,101153.69
2022-08-11T07:54:03.142Z,101148.38
2022-08-11T07:56:54.830Z,101147.03
2022-08-11T08:00:00.046Z,101145.97
2022-08-11T08:02:50.054Z,101145.72
2022-08-11T08:05:38.655Z,101149.31
2022-08-11T08:08:25.337Z,101158.56
2022-08-11T08:11:11.418Z,101151.03
2022-08-11T08:13:57.385Z,101152.16
2022-08-11T08:16:43.465Z,101149.25
2022-08-11T08:19:13.837Z,101147.63
2022-08-11T08:21:45.480Z,101150.06
2022-08-11T08:24:14.310Z,101154.09
2022-08-11T08:27:03.760Z,101150.66
2022-08-11T08:29:52.596Z,101154.09
2022-08-11T08:32:22.237Z,101152.66
2022-08-11T08:34:51.999Z,101152.06
2022-08-11T08:37:45.805Z,101152.16
2022-08-11T08:40:16.843Z,101148.53
2022-08-11T08:42:51.765Z,101160.47
2022-08-11T08:45:20.108Z,101150.97
2022-08-11T08:47:53.710Z,101144.50
2022-08-11T08:50:46.969Z,101145.25
2022-08-11T08:53:22.013Z,101150.66
2022-08-11T08:55:52.139Z,101148.16
2022-08-11T08:58:23.339Z,101155.50
2022-08-11T09:00:54.724Z,101142.84
2022-08-11T09:04:07.323Z,101151.25
2022-08-11T09:06:16.747Z,101150.97
2022-08-11T09:08:49.694Z,101142.84
2022-08-11T09:11:42.673Z,101144.00
2022-08-11T09:14:15.119Z,101147.56
2022-08-11T09:16:44.371Z,101140.22
2022-08-11T09:19:17.993Z,101134.63
2022-08-11T09:22:08.718Z,101134.47
2022-08-11T09:24:57.321Z,101132.72
2022-08-11T09:27:26.128Z,101124.91
2022-08-11T09:29:54.931Z,101128.28
2022-08-11T09:32:26.965Z,101117.22
2022-08-11T09:34:55.774Z,101119.47
2022-08-11T09:37:55.531Z,101125.25
2022-08-11T09:40:33.895Z,101122.88
2022-08-11T09:43:24.336Z,101117.72
2022-08-11T09:45:54.122Z,101122.41
2022-08-11T09:48:25.303Z,101106.31
2022-08-11T09:50:56.142Z,101108.25
2022-08-11T09:53:36.433Z,101100.69
2022-08-11T09:56:29.868Z,101101.53
2022-08-11T09:58:59.753Z,101098.28
2022-08-11T10:01:32.556Z,101096.69
2022-08-11T10:04:05.035Z,101090.69
2022-08-11T10:06:53.998Z,101082.00
2022-08-11T10:09:26.638Z,101082.78
2022-08-11T10:11:59.280Z,101083.25
2022-08-11T10:14:47.012Z,101079.88
2022-08-11T10:17:17.316Z,101075.41
2022-08-11T10:19:48.835Z,101076.16
2022-08-11T10:22:52.450Z,101074.56
2022-08-11T10:25:39.138Z,101073.56
2022-08-11T10:28:33.014Z,101065.06
2022-08-11T10:31:17.662Z,101054.63
2022-08-11T10:34:03.842Z,101064.06
2022-08-11T10:36:34.340Z,101062.63
2022-08-11T10:39:05.543Z,101054.69
2022-08-11T10:42:06.837Z,101062.06
2022-08-11T10:44:43.344Z,101068.28
2022-08-11T10:47:33.299Z,101060.34
2022-08-11T10:50:22.487Z,101056.22
2022-08-11T10:53:10.470Z,101055.84
2022-08-11T10:55:58.541Z,101052.22
2022-08-11T10:58:44.921Z,101048.34
2022-08-11T11:01:16.197Z,101056.22
2022-08-11T11:03:44.939Z,101040.06
2022-08-11T11:06:28.713Z,101047.88
2022-08-11T11:09:04.435Z,101043.44
2022-08-11T11:11:55.726Z,101048.06
2022-08-11T11:14:49.805Z,101036.53
2022-08-11T11:17:45.308Z,101029.28
2022-08-11T11:20:37.528Z,101036.50
2022-08-11T11:23:10.264Z,101038.03
2022-08-11T11:26:07.751Z,101030.88
2022-08-11T11:29:08.350Z,101035.44
2022-08-11T11:31:51.542Z,101030.22
2022-08-11T11:34:52.993Z,101032.38
2022-08-11T11:37:23.764Z,101019.63
2022-08-11T11:39:53.204Z,101017.47
2022-08-11T11:42:23.605Z,101018.06
2022-08-11T11:44:55.800Z,101016.25
2022-08-11T11:47:25.660Z,101010.28
2022-08-11T11:49:56.858Z,101022.28
2022-08-11T11:52:25.997Z,101018.53
2022-08-11T11:55:00.570Z,101018.97
2022-08-11T11:57:59.196Z,101009.94
2022-08-11T12:00:45.503Z,101008.00
2022-08-11T12:03:15.185Z,101008.47
2022-08-11T12:05:46.201Z,101007.31
2022-08-11T12:08:17.184Z,101002.75
2022-08-11T12:10:49.555Z,100998.75
2022-08-11T12:13:37.686Z,100999.91
2022-08-11T12:16:33.191Z,101000.81
2022-08-11T12:18:58.060Z,101004.00
2022-08-11T12:21:29.625Z,100995.78
2022-08-11T12:24:17.270Z,100990.41
2022-08-11T12:27:15.935Z,100982.66
2022-08-11T12:29:54.881Z,100994.53
2022-08-11T12:32:25.671Z,100989.28
2022-08-11T12:34:54.121Z,100976.47
2022-08-11T12:37:30.400Z,100974.63
2022-08-11T12:40:43.277Z,100973.63
2022-08-11T12:43:45.248Z,100971.34
2022-08-11T12:46:28.083Z,100963.19
2022-08-11T12:49:16.444Z,100962.53
2022-08-11T12:52:11.126Z,100959.94
2022-08-11T12:54:59.084Z,100957.19
2022-08-11T12:57:51.409Z,100955.69
2022-08-11T13:00:39.213Z,100954.19
2022-08-11T13:03:28.832Z,100961.72
2022-08-11T13:05:59.913Z,100967.31
2022-08-11T13:08:34.261Z,100961.84
2022-08-11T13:11:22.224Z,100951.78
2022-08-11T13:13:57.161Z,100944.69
2022-08-11T13:16:29.336Z,100950.25
2022-08-11T13:18:58.961Z,100949.94
2022-08-11T13:21:28.475Z,100952.00
2022-08-11T13:24:00.930Z,100935.81
2022-08-11T13:26:43.566Z,100933.72
2022-08-11T13:29:18.759Z,100936.59
2022-08-11T13:31:47.800Z,100932.25
2022-08-11T13:35:14.201Z,100931.91
2022-08-11T13:38:17.828Z,100926.41
2022-08-11T13:40:54.717Z,100923.69
2022-08-11T13:43:26.095Z,100913.94
2022-08-11T13:46:15.650Z,100916.69
2022-08-11T13:48:44.332Z,100918.88
2022-08-11T13:51:34.342Z,100919.34
2022-08-11T13:54:06.306Z,100915.44
2022-08-11T13:56:36.305Z,100912.03
2022-08-11T13:59:06.310Z,100919.44
2022-08-11T14:02:20.597Z,100921.13
2022-08-11T14:04:33.703Z,100917.25
2022-08-11T14:07:07.631Z,100907.88
2022-08-11T14:09:39.550Z,100916.91
2022-08-11T14:12:31.869Z,100908.38
2022-08-11T14:15:09.193Z,100909.50
2022-08-11T14:17:48.914Z,100908.13
2022-08-11T14:20:38.997Z,100898.44
2022-08-11T14:23:11.716Z,100903.56
2022-08-11T14:26:05.122Z,100893.06
2022-08-11T14:28:43.742Z,100891.91
2022-08-11T14:31:18.325Z,100890.41
2022-08-11T14:34:00.264Z,100888.81
2022-08-11T14:36:35.861Z,100880.22
2022-08-11T14:39:08.738Z,100880.22
2022-08-11T14:42:11.398Z,100868.13
2022-08-11T14:45:16.661Z,100864.72
2022-08-11T14:47:52.057Z,100872.19
2022-08-11T14:50:24.820Z,100879.38
2022-08-11T14:52:57.723Z,100873.19
2022-08-11T14:55:45.826Z,100875.59
2022-08-11T14:58:22.085Z,100870.19
2022-08-11T15:00:57.270Z,100853.75
2022-08-11T15:03:31.552Z,100856.16
2022-08-11T15:06:02.396Z,100856.97
2022-08-11T15:08:51.717Z,100842.88
2022-08-11T15:11:40.971Z,100842.53
2022-08-11T15:14:13.678Z,100845.75
2022-08-11T15:17:01.328Z,100841.84
2022-08-11T15:19:40.094Z,100838.75
2022-08-11T15:22:28.400Z,100838.41
2022-08-11T15:24:57.248Z,100829.06
2022-08-11T15:27:44.885Z,100834.56
2022-08-11T15:30:33.179Z,100830.66
2022-08-11T15:33:26.455Z,100830.09
2022-08-11T15:36:17.554Z,100826.97
2022-08-11T15:38:57.757Z,100820.34
2022-08-11T15:41:58.872Z,100822.22
2022-08-11T15:45:06.859Z,100824.50
2022-08-11T15:47:48.862Z,100817.84
2022-08-11T16:09:18.410Z,100800.13
2022-08-11T16:11:49.840Z,100802.53
2022-08-11T16:14:38.080Z,100797.16
2022-08-11T16:17:09.895Z,100791.91
2022-08-11T16:19:39.042Z,100799.69
2022-08-11T16:22:11.325Z,100799.09
2022-08-11T16:27:02.993Z,100787.78
2022-08-11T16:27:41.848Z,100790.97
2022-08-11T16:30:11.813Z,100790.97
2022-08-11T16:32:43.133Z,100782.66
2022-08-11T16:35:33.057Z,100792.81
2022-08-11T16:38:22.258Z,100798.31
2022-08-11T16:40:54.898Z,100795.91
2022-08-11T16:43:44.341Z,100798.31
2022-08-11T16:46:34.145Z,100792.72
2022-08-11T16:49:04.384Z,100794.09
2022-08-11T16:51:33.188Z,100799.22
2022-08-11T16:54:05.935Z,100799.13
2022-08-11T16:56:41.873Z,100796.41
2022-08-11T16:59:19.402Z,100785.31
2022-08-11T17:01:53.241Z,100786.59
2022-08-11T17:04:47.373Z,100785.75
2022-08-11T17:07:40.303Z,100787.72
2022-08-11T17:10:51.847Z,100795.50
2022-08-11T17:13:29.462Z,100790.81
2022-08-11T17:16:13.046Z,100781.66
2022-08-11T17:18:50.128Z,100786.22
2022-08-11T17:21:21.569Z,100786.44
2022-08-11T17:23:52.657Z,100787.59
2022-08-11T17:26:28.653Z,100787.16
2022-08-11T17:29:04.775Z,100785.56
2022-08-11T17:31:50.260Z,100781.13
2022-08-11T17:34:35.985Z,100787.72
2022-08-11T17:37:05.863Z,100783.31
2022-08-11T17:39:35.975Z,100784.41
2022-08-11T17:42:22.305Z,100791.41
2022-08-11T17:45:09.957Z,100789.34
2022-08-11T17:47:56.991Z,100781.81
2022-08-11T17:50:26.523Z,100783.66
2022-08-11T17:53:12.249Z,100785.91
2022-08-11T17:56:00.598Z,100789.34
2022-08-11T17:58:47.162Z,100782.16
2022-08-11T18:01:20.415Z,100788.78
2022-08-11T18:03:57.565Z,100789.44
2022-08-11T18:06:34.021Z,100799.94
2022-08-11T18:09:24.248Z,100795.13
2022-08-11T18:12:13.286Z,100795.00
2022-08-11T18:15:03.146Z,100796.50
2022-08-11T18:17:52.816Z,100803.47
2022-08-11T18:20:40.218Z,100801.75
2022-08-11T18:23:45.820Z,100800.84
2022-08-11T18:26:39.444Z,100804.13
2022-08-11T18:29:28.356Z,100808.22
2022-08-11T18:32:20.802Z,100804.47
2022-08-11T18:35:14.553Z,100807.38
2022-08-11T18:38:08.803Z,100810.66
2022-08-11T18:40:57.169Z,100812.69
2022-08-11T18:43:49.019Z,100813.25
2022-08-11T18:46:40.967Z,100818.78
2022-08-11T18:50:02.569Z,100820.47
2022-08-11T18:52:49.483Z,100817.00
2022-08-11T19:11:11.938Z,100826.44
2022-08-11T19:13:59.219Z,100827.13
2022-08-11T19:16:45.424Z,100828.28
2022-08-11T19:19:34.388Z,100833.00
2022-08-11T19:22:21.543Z,100839.63
2022-08-11T19:25:10.267Z,100831.00
2022-08-11T19:27:58.997Z,100836.13
2022-08-11T19:30:45.552Z,100840.66
2022-08-11T19:33:59.744Z,100846.63
2022-08-11T19:36:37.757Z,100849.03
2022-08-11T19:39:24.015Z,100852.56
2022-08-11T19:42:09.922Z,100851.78
2022-08-11T19:44:57.683Z,100849.88
2022-08-11T19:47:44.126Z,100851.47
2022-08-11T19:50:31.170Z,100844.88
2022-08-11T19:53:21.098Z,100853.84
2022-08-11T19:56:09.212Z,100856.25
2022-08-11T19:58:56.740Z,100855.94
2022-08-11T20:02:12.941Z,100858.00
2022-08-11T20:04:51.008Z,100855.28
2022-08-11T20:07:37.907Z,100860.38
2022-08-11T20:10:25.663Z,100857.00
2022-08-11T20:13:13.310Z,100851.22
2022-08-11T20:16:07.434Z,100857.47
2022-08-11T20:18:55.790Z,100868.50
2022-08-11T20:21:43.073Z,100860.63
2022-08-11T20:24:30.243Z,100865.41
2022-08-11T20:27:24.116Z,100876.75
2022-08-11T20:30:11.400Z,100865.53
2022-08-11T20:33:00.246Z,100871.13
2022-08-11T20:35:48.126Z,100868.53
2022-08-11T20:38:34.810Z,100867.34
2022-08-11T20:41:21.734Z,100871.00
2022-08-11T20:44:09.812Z,100872.25
2022-08-11T20:46:57.523Z,100862.63
2022-08-11T20:49:53.606Z,100861.63
2022-08-11T20:52:48.073Z,100868.00
2022-08-11T20:55:51.382Z,100866.34
2022-08-11T21:01:47.249Z,100870.44
2022-08-11T21:04:38.157Z,100874.72
2022-08-11T21:07:42.412Z,100872.72
2022-08-11T21:10:31.114Z,100877.94
2022-08-11T21:13:26.843Z,100880.00
2022-08-11T21:16:25.464Z,100879.78
2022-08-11T21:19:16.004Z,100881.03
2022-08-11T21:22:03.892Z,100881.47
2022-08-11T21:24:52.612Z,100876.94
2022-08-11T21:27:42.534Z,100877.38
2022-08-11T21:30:28.982Z,100876.19
2022-08-11T21:33:15.177Z,100875.19
2022-08-11T21:36:01.855Z,100879.13
2022-08-11T21:38:47.704Z,100880.81
2022-08-11T21:41:35.590Z,100881.72
2022-08-11T21:44:25.024Z,100882.34
2022-08-11T21:47:12.307Z,100877.28
2022-08-11T21:49:59.364Z,100876.31
2022-08-11T21:52:46.152Z,100875.63
2022-08-11T21:55:33.672Z,100875.41
2022-08-11T21:58:21.604Z,100866.75
2022-08-11T22:01:08.537Z,100873.41
2022-08-11T22:03:54.800Z,100868.06
2022-08-11T22:06:40.883Z,100866.56
2022-08-11T22:09:26.724Z,100860.13
2022-08-11T22:12:34.082Z,100867.56
2022-08-11T22:15:20.012Z,100869.56
2022-08-11T22:18:06.816Z,100869.66
2022-08-11T22:20:53.614Z,100867.03
2022-08-11T22:23:40.419Z,100860.91
2022-08-11T22:26:26.499Z,100862.59
2022-08-11T22:29:12.107Z,100869.22
2022-08-11T22:31:59.514Z,100859.78
2022-08-11T22:34:53.470Z,100870.13
2022-08-11T22:37:40.793Z,100860.47
2022-08-11T22:40:29.632Z,100864.88
2022-08-11T22:43:15.715Z,100859.53
2022-08-11T22:46:01.199Z,100857.41
2022-08-11T22:48:49.200Z,100858.03
2022-08-11T22:51:38.645Z,100859.09
2022-08-11T22:54:26.283Z,100856.47
2022-08-11T22:57:12.263Z,100859.78
2022-08-11T22:59:58.691Z,100854.44
2022-08-11T23:02:46.573Z,100858.84
2022-08-11T23:05:33.495Z,100849.69
2022-08-11T23:08:22.104Z,100858.69
2022-08-11T23:11:09.259Z,100854.16
2022-08-11T23:13:54.744Z,100858.56
2022-08-11T23:16:41.065Z,100844.00
2022-08-11T23:20:07.827Z,100857.56
2022-08-11T23:22:49.057Z,100858.13
2022-08-11T23:25:37.469Z,100855.72
2022-08-11T23:28:25.121Z,100850.88
2022-08-11T23:31:12.875Z,100856.09
2022-08-11T23:34:00.879Z,100862.91
2022-08-11T23:36:47.816Z,100862.69
2022-08-11T23:39:33.930Z,100859.47
2022-08-11T23:42:20.807Z,100854.63
2022-08-11T23:45:09.572Z,100854.13
2022-08-11T23:47:57.548Z,100855.22
2022-08-11T23:50:43.993Z,100843.38
2022-08-11T23:53:31.038Z,100844.75
2022-08-11T23:56:16.616Z,100849.91
2022-08-11T23:59:04.145Z,100852.59
